sensor_id;sensor_type;location;lat;lon;timestamp;P1;durP1;ratioP1;P2;durP2;ratioP2
4794;SDS011;2411;47.060;15.064;2024-02-21T00:00:58;1.57;;;1.10;;
4794;SDS011;2411;47.060;15.064;2024-02-21T00:03:25;1.00;;;0.90;;
4794;SDS011;2411;47.060;15.064;2024-02-21T00:05:52;1.90;;;1.10;;
4794;SDS011;2411;47.060;15.064;2024-02-21T00:08:19;1.20;;;1.10;;
4794;SDS011;2411;47.060;15.064;2024-02-21T00:10:46;1.17;;;1.07;;
4794;SDS011;2411;47.060;15.064;2024-02-21T00:13:14;1.07;;;0.77;;
4794;SDS011;2411;47.060;15.064;2024-02-21T00:15:41;1.27;;;1.10;;
4794;SDS011;2411;47.060;15.064;2024-02-21T00:18:08;3.50;;;1.63;;
4794;SDS011;2411;47.060;15.064;2024-02-21T00:20:37;1.20;;;1.10;;
4794;SDS011;2411;47.060;15.064;2024-02-21T00:23:04;1.00;;;1.00;;
4794;SDS011;2411;47.060;15.064;2024-02-21T00:25:31;1.33;;;1.00;;
4794;SDS011;2411;47.060;15.064;2024-02-21T00:27:58;1.17;;;1.10;;
4794;SDS011;2411;47.060;15.064;2024-02-21T00:30:26;0.97;;;0.97;;
4794;SDS011;2411;47.060;15.064;2024-02-21T00:32:53;5.37;;;1.23;;
4794;SDS011;2411;47.060;15.064;2024-02-21T00:35:21;1.47;;;1.37;;
4794;SDS011;2411;47.060;15.064;2024-02-21T00:37:48;2.90;;;1.30;;
4794;SDS011;2411;47.060;15.064;2024-02-21T00:40:15;0.77;;;0.77;;
4794;SDS011;2411;47.060;15.064;2024-02-21T00:42:46;0.83;;;0.83;;
4794;SDS011;2411;47.060;15.064;2024-02-21T00:45:14;1.47;;;1.00;;
4794;SDS011;2411;47.060;15.064;2024-02-21T00:47:41;1.13;;;1.03;;
4794;SDS011;2411;47.060;15.064;2024-02-21T00:50:08;0.70;;;0.70;;
4794;SDS011;2411;47.060;15.064;2024-02-21T00:52:36;1.27;;;0.90;;
4794;SDS011;2411;47.060;15.064;2024-02-21T00:55:04;1.70;;;1.03;;
4794;SDS011;2411;47.060;15.064;2024-02-21T00:57:31;0.80;;;0.80;;
4794;SDS011;2411;47.060;15.064;2024-02-21T00:59:58;0.93;;;0.93;;
4794;SDS011;2411;47.060;15.064;2024-02-21T01:02:25;2.30;;;1.40;;
4794;SDS011;2411;47.060;15.064;2024-02-21T01:04:52;2.50;;;1.13;;
4794;SDS011;2411;47.060;15.064;2024-02-21T01:07:20;3.60;;;1.30;;
4794;SDS011;2411;47.060;15.064;2024-02-21T01:09:47;1.17;;;1.07;;
4794;SDS011;2411;47.060;15.064;2024-02-21T01:12:14;2.67;;;1.13;;
4794;SDS011;2411;47.060;15.064;2024-02-21T01:14:41;1.17;;;0.80;;
4794;SDS011;2411;47.060;15.064;2024-02-21T01:17:08;1.37;;;1.00;;
4794;SDS011;2411;47.060;15.064;2024-02-21T01:19:35;2.10;;;1.00;;
4794;SDS011;2411;47.060;15.064;2024-02-21T01:22:03;2.20;;;1.00;;
4794;SDS011;2411;47.060;15.064;2024-02-21T01:24:30;1.27;;;1.17;;
4794;SDS011;2411;47.060;15.064;2024-02-21T01:26:57;2.33;;;0.97;;
4794;SDS011;2411;47.060;15.064;2024-02-21T01:29:24;1.63;;;1.53;;
4794;SDS011;2411;47.060;15.064;2024-02-21T01:31:51;1.43;;;1.00;;
4794;SDS011;2411;47.060;15.064;2024-02-21T01:34:19;0.90;;;0.80;;
4794;SDS011;2411;47.060;15.064;2024-02-21T01:36:46;1.83;;;0.90;;
4794;SDS011;2411;47.060;15.064;2024-02-21T01:39:13;0.80;;;0.80;;
4794;SDS011;2411;47.060;15.064;2024-02-21T01:41:40;1.20;;;1.10;;
4794;SDS011;2411;47.060;15.064;2024-02-21T01:44:07;0.60;;;0.60;;
4794;SDS011;2411;47.060;15.064;2024-02-21T01:46:34;1.10;;;0.97;;
4794;SDS011;2411;47.060;15.064;2024-02-21T01:49:01;1.50;;;0.80;;
4794;SDS011;2411;47.060;15.064;2024-02-21T01:51:28;0.90;;;0.90;;
4794;SDS011;2411;47.060;15.064;2024-02-21T01:53:57;1.07;;;0.80;;
4794;SDS011;2411;47.060;15.064;2024-02-21T01:56:24;1.53;;;1.43;;
4794;SDS011;2411;47.060;15.064;2024-02-21T01:58:51;1.00;;;0.83;;
4794;SDS011;2411;47.060;15.064;2024-02-21T02:01:19;1.10;;;1.00;;
4794;SDS011;2411;47.060;15.064;2024-02-21T02:03:48;0.93;;;0.93;;
4794;SDS011;2411;47.060;15.064;2024-02-21T02:06:16;1.23;;;0.70;;
4794;SDS011;2411;47.060;15.064;2024-02-21T02:08:43;0.70;;;0.70;;
4794;SDS011;2411;47.060;15.064;2024-02-21T02:11:13;0.80;;;0.80;;
4794;SDS011;2411;47.060;15.064;2024-02-21T02:13:41;1.90;;;0.90;;
4794;SDS011;2411;47.060;15.064;2024-02-21T02:16:08;1.27;;;1.17;;
4794;SDS011;2411;47.060;15.064;2024-02-21T02:18:35;4.67;;;1.40;;
4794;SDS011;2411;47.060;15.064;2024-02-21T02:21:06;0.90;;;0.80;;
4794;SDS011;2411;47.060;15.064;2024-02-21T02:23:40;0.90;;;0.70;;
4794;SDS011;2411;47.060;15.064;2024-02-21T02:26:08;1.23;;;0.93;;
4794;SDS011;2411;47.060;15.064;2024-02-21T02:28:36;2.10;;;0.77;;
4794;SDS011;2411;47.060;15.064;2024-02-21T02:31:03;2.07;;;0.83;;
4794;SDS011;2411;47.060;15.064;2024-02-21T02:33:30;1.20;;;0.90;;
4794;SDS011;2411;47.060;15.064;2024-02-21T02:35:57;0.70;;;0.70;;
4794;SDS011;2411;47.060;15.064;2024-02-21T02:38:25;3.67;;;1.30;;
4794;SDS011;2411;47.060;15.064;2024-02-21T02:40:52;0.80;;;0.80;;
4794;SDS011;2411;47.060;15.064;2024-02-21T02:43:19;0.83;;;0.83;;
4794;SDS011;2411;47.060;15.064;2024-02-21T02:45:46;1.00;;;0.80;;
4794;SDS011;2411;47.060;15.064;2024-02-21T02:48:14;1.70;;;0.73;;
4794;SDS011;2411;47.060;15.064;2024-02-21T02:50:41;1.07;;;1.07;;
4794;SDS011;2411;47.060;15.064;2024-02-21T02:53:08;1.83;;;0.87;;
4794;SDS011;2411;47.060;15.064;2024-02-21T02:55:35;1.53;;;0.77;;
4794;SDS011;2411;47.060;15.064;2024-02-21T02:58:02;1.17;;;0.70;;
4794;SDS011;2411;47.060;15.064;2024-02-21T03:00:29;1.30;;;1.20;;
4794;SDS011;2411;47.060;15.064;2024-02-21T03:02:57;1.47;;;1.00;;
4794;SDS011;2411;47.060;15.064;2024-02-21T03:05:24;0.70;;;0.70;;
4794;SDS011;2411;47.060;15.064;2024-02-21T03:07:51;0.80;;;0.80;;
4794;SDS011;2411;47.060;15.064;2024-02-21T03:10:18;0.73;;;0.73;;
4794;SDS011;2411;47.060;15.064;2024-02-21T03:12:46;1.30;;;0.80;;
4794;SDS011;2411;47.060;15.064;2024-02-21T03:15:13;0.73;;;0.73;;
4794;SDS011;2411;47.060;15.064;2024-02-21T03:17:41;1.40;;;1.40;;
4794;SDS011;2411;47.060;15.064;2024-02-21T03:20:09;0.97;;;0.80;;
4794;SDS011;2411;47.060;15.064;2024-02-21T03:22:39;1.07;;;0.97;;
4794;SDS011;2411;47.060;15.064;2024-02-21T03:25:08;2.40;;;1.30;;
4794;SDS011;2411;47.060;15.064;2024-02-21T03:27:37;0.90;;;0.90;;
4794;SDS011;2411;47.060;15.064;2024-02-21T03:30:04;1.20;;;0.80;;
4794;SDS011;2411;47.060;15.064;2024-02-21T03:32:32;1.20;;;1.10;;
4794;SDS011;2411;47.060;15.064;2024-02-21T03:34:59;0.90;;;0.90;;
4794;SDS011;2411;47.060;15.064;2024-02-21T03:37:26;1.17;;;0.90;;
4794;SDS011;2411;47.060;15.064;2024-02-21T03:39:53;3.50;;;1.00;;
4794;SDS011;2411;47.060;15.064;2024-02-21T03:42:20;1.47;;;0.90;;
4794;SDS011;2411;47.060;15.064;2024-02-21T03:44:48;2.33;;;1.20;;
4794;SDS011;2411;47.060;15.064;2024-02-21T03:47:15;3.83;;;1.10;;
4794;SDS011;2411;47.060;15.064;2024-02-21T03:49:42;1.43;;;0.77;;
4794;SDS011;2411;47.060;15.064;2024-02-21T03:52:09;2.30;;;1.00;;
4794;SDS011;2411;47.060;15.064;2024-02-21T03:54:37;0.70;;;0.70;;
4794;SDS011;2411;47.060;15.064;2024-02-21T03:57:04;0.83;;;0.83;;
4794;SDS011;2411;47.060;15.064;2024-02-21T03:59:32;1.37;;;1.03;;
4794;SDS011;2411;47.060;15.064;2024-02-21T04:01:59;1.30;;;0.90;;
4794;SDS011;2411;47.060;15.064;2024-02-21T04:04:27;1.60;;;0.80;;
4794;SDS011;2411;47.060;15.064;2024-02-21T04:06:54;2.67;;;1.10;;
4794;SDS011;2411;47.060;15.064;2024-02-21T04:09:21;1.70;;;0.90;;
4794;SDS011;2411;47.060;15.064;2024-02-21T04:11:48;0.93;;;0.70;;
4794;SDS011;2411;47.060;15.064;2024-02-21T04:14:15;0.77;;;0.77;;
4794;SDS011;2411;47.060;15.064;2024-02-21T04:16:42;2.03;;;0.70;;
4794;SDS011;2411;47.060;15.064;2024-02-21T04:19:09;1.80;;;1.00;;
4794;SDS011;2411;47.060;15.064;2024-02-21T04:21:36;0.70;;;0.70;;
4794;SDS011;2411;47.060;15.064;2024-02-21T04:24:04;1.60;;;0.70;;
4794;SDS011;2411;47.060;15.064;2024-02-21T04:26:33;0.70;;;0.70;;
4794;SDS011;2411;47.060;15.064;2024-02-21T04:29:00;3.90;;;0.90;;
4794;SDS011;2411;47.060;15.064;2024-02-21T04:31:28;0.50;;;0.50;;
4794;SDS011;2411;47.060;15.064;2024-02-21T04:33:56;3.60;;;0.70;;
4794;SDS011;2411;47.060;15.064;2024-02-21T04:36:23;1.73;;;1.00;;
4794;SDS011;2411;47.060;15.064;2024-02-21T04:38:51;1.10;;;0.90;;
4794;SDS011;2411;47.060;15.064;2024-02-21T04:41:18;0.80;;;0.80;;
4794;SDS011;2411;47.060;15.064;2024-02-21T04:43:46;1.60;;;0.80;;
4794;SDS011;2411;47.060;15.064;2024-02-21T04:46:16;1.27;;;0.70;;
4794;SDS011;2411;47.060;15.064;2024-02-21T04:48:43;1.20;;;1.00;;
4794;SDS011;2411;47.060;15.064;2024-02-21T04:51:11;1.10;;;0.60;;
4794;SDS011;2411;47.060;15.064;2024-02-21T04:53:39;0.53;;;0.53;;
4794;SDS011;2411;47.060;15.064;2024-02-21T04:56:06;3.93;;;1.37;;
4794;SDS011;2411;47.060;15.064;2024-02-21T04:58:37;1.43;;;0.67;;
4794;SDS011;2411;47.060;15.064;2024-02-21T05:01:05;3.87;;;0.60;;
4794;SDS011;2411;47.060;15.064;2024-02-21T05:03:32;1.10;;;0.70;;
4794;SDS011;2411;47.060;15.064;2024-02-21T05:05:59;0.50;;;0.50;;
4794;SDS011;2411;47.060;15.064;2024-02-21T05:08:27;0.50;;;0.50;;
4794;SDS011;2411;47.060;15.064;2024-02-21T05:10:54;2.00;;;0.77;;
4794;SDS011;2411;47.060;15.064;2024-02-21T05:13:21;3.93;;;1.13;;
4794;SDS011;2411;47.060;15.064;2024-02-21T05:15:48;2.17;;;0.90;;
4794;SDS011;2411;47.060;15.064;2024-02-21T05:18:16;0.90;;;0.90;;
4794;SDS011;2411;47.060;15.064;2024-02-21T05:20:43;2.20;;;0.60;;
4794;SDS011;2411;47.060;15.064;2024-02-21T05:23:10;0.90;;;0.60;;
4794;SDS011;2411;47.060;15.064;2024-02-21T05:25:37;0.83;;;0.80;;
4794;SDS011;2411;47.060;15.064;2024-02-21T05:28:04;0.70;;;0.70;;
4794;SDS011;2411;47.060;15.064;2024-02-21T05:30:33;0.93;;;0.70;;
4794;SDS011;2411;47.060;15.064;2024-02-21T05:33:03;1.27;;;0.83;;
4794;SDS011;2411;47.060;15.064;2024-02-21T05:35:34;2.50;;;0.77;;
4794;SDS011;2411;47.060;15.064;2024-02-21T05:38:02;1.57;;;1.30;;
4794;SDS011;2411;47.060;15.064;2024-02-21T05:40:38;1.97;;;1.30;;
4794;SDS011;2411;47.060;15.064;2024-02-21T05:43:06;0.70;;;0.70;;
4794;SDS011;2411;47.060;15.064;2024-02-21T05:45:34;1.03;;;1.03;;
4794;SDS011;2411;47.060;15.064;2024-02-21T05:48:02;3.20;;;1.50;;
4794;SDS011;2411;47.060;15.064;2024-02-21T05:50:30;0.83;;;0.83;;
4794;SDS011;2411;47.060;15.064;2024-02-21T05:52:58;0.90;;;0.90;;
4794;SDS011;2411;47.060;15.064;2024-02-21T05:55:25;1.27;;;1.17;;
4794;SDS011;2411;47.060;15.064;2024-02-21T05:57:54;2.10;;;0.90;;
4794;SDS011;2411;47.060;15.064;2024-02-21T06:00:22;3.17;;;1.20;;
4794;SDS011;2411;47.060;15.064;2024-02-21T06:02:49;1.20;;;0.90;;
4794;SDS011;2411;47.060;15.064;2024-02-21T06:05:16;1.97;;;1.10;;
4794;SDS011;2411;47.060;15.064;2024-02-21T06:07:43;4.20;;;1.47;;
4794;SDS011;2411;47.060;15.064;2024-02-21T06:10:11;1.73;;;1.63;;
4794;SDS011;2411;47.060;15.064;2024-02-21T06:12:38;4.47;;;2.00;;
4794;SDS011;2411;47.060;15.064;2024-02-21T06:15:05;3.23;;;1.30;;
4794;SDS011;2411;47.060;15.064;2024-02-21T06:17:32;2.30;;;1.30;;
4794;SDS011;2411;47.060;15.064;2024-02-21T06:19:59;4.03;;;1.40;;
4794;SDS011;2411;47.060;15.064;2024-02-21T06:22:27;9.23;;;1.37;;
4794;SDS011;2411;47.060;15.064;2024-02-21T06:24:54;1.00;;;1.00;;
4794;SDS011;2411;47.060;15.064;2024-02-21T06:27:21;2.13;;;2.00;;
4794;SDS011;2411;47.060;15.064;2024-02-21T06:29:48;4.83;;;4.10;;
4794;SDS011;2411;47.060;15.064;2024-02-21T06:32:15;5.10;;;4.17;;
4794;SDS011;2411;47.060;15.064;2024-02-21T06:34:42;2.00;;;1.80;;
4794;SDS011;2411;47.060;15.064;2024-02-21T06:37:10;1.07;;;1.00;;
4794;SDS011;2411;47.060;15.064;2024-02-21T06:39:37;1.67;;;1.57;;
4794;SDS011;2411;47.060;15.064;2024-02-21T06:42:04;1.47;;;1.23;;
4794;SDS011;2411;47.060;15.064;2024-02-21T06:44:31;1.70;;;1.60;;
4794;SDS011;2411;47.060;15.064;2024-02-21T06:47:03;1.87;;;1.50;;
4794;SDS011;2411;47.060;15.064;2024-02-21T06:49:30;4.00;;;1.40;;
4794;SDS011;2411;47.060;15.064;2024-02-21T06:51:57;3.27;;;2.97;;
4794;SDS011;2411;47.060;15.064;2024-02-21T06:54:24;2.60;;;2.30;;
4794;SDS011;2411;47.060;15.064;2024-02-21T06:56:51;1.97;;;1.83;;
4794;SDS011;2411;47.060;15.064;2024-02-21T06:59:18;4.00;;;3.07;;
4794;SDS011;2411;47.060;15.064;2024-02-21T07:01:46;5.07;;;2.43;;
4794;SDS011;2411;47.060;15.064;2024-02-21T07:04:14;4.20;;;2.93;;
4794;SDS011;2411;47.060;15.064;2024-02-21T07:06:42;1.83;;;1.73;;
4794;SDS011;2411;47.060;15.064;2024-02-21T07:09:09;1.40;;;1.20;;
4794;SDS011;2411;47.060;15.064;2024-02-21T07:11:36;5.87;;;1.57;;
4794;SDS011;2411;47.060;15.064;2024-02-21T07:14:03;3.70;;;0.83;;
4794;SDS011;2411;47.060;15.064;2024-02-21T07:16:31;1.13;;;1.03;;
4794;SDS011;2411;47.060;15.064;2024-02-21T07:18:59;9.13;;;1.53;;
4794;SDS011;2411;47.060;15.064;2024-02-21T07:21:27;2.47;;;1.20;;
4794;SDS011;2411;47.060;15.064;2024-02-21T07:23:54;6.43;;;1.10;;
4794;SDS011;2411;47.060;15.064;2024-02-21T07:26:21;0.90;;;0.90;;
4794;SDS011;2411;47.060;15.064;2024-02-21T07:28:48;1.70;;;0.93;;
4794;SDS011;2411;47.060;15.064;2024-02-21T07:31:16;3.70;;;1.20;;
4794;SDS011;2411;47.060;15.064;2024-02-21T07:33:43;3.07;;;1.40;;
4794;SDS011;2411;47.060;15.064;2024-02-21T07:36:11;1.43;;;1.33;;
4794;SDS011;2411;47.060;15.064;2024-02-21T07:38:38;5.70;;;1.90;;
4794;SDS011;2411;47.060;15.064;2024-02-21T07:41:05;2.97;;;1.60;;
4794;SDS011;2411;47.060;15.064;2024-02-21T07:43:33;1.87;;;1.63;;
4794;SDS011;2411;47.060;15.064;2024-02-21T07:46:00;8.20;;;2.10;;
4794;SDS011;2411;47.060;15.064;2024-02-21T07:48:27;3.37;;;2.53;;
4794;SDS011;2411;47.060;15.064;2024-02-21T07:50:58;3.00;;;2.30;;
4794;SDS011;2411;47.060;15.064;2024-02-21T07:53:25;2.93;;;1.87;;
4794;SDS011;2411;47.060;15.064;2024-02-21T07:55:52;2.17;;;1.87;;
4794;SDS011;2411;47.060;15.064;2024-02-21T07:58:19;3.10;;;1.50;;
4794;SDS011;2411;47.060;15.064;2024-02-21T08:00:46;1.57;;;1.47;;
4794;SDS011;2411;47.060;15.064;2024-02-21T08:03:13;1.80;;;1.70;;
4794;SDS011;2411;47.060;15.064;2024-02-21T08:05:42;2.67;;;1.73;;
4794;SDS011;2411;47.060;15.064;2024-02-21T08:08:09;2.90;;;1.80;;
4794;SDS011;2411;47.060;15.064;2024-02-21T08:10:36;5.00;;;1.97;;
4794;SDS011;2411;47.060;15.064;2024-02-21T08:13:03;3.43;;;2.60;;
4794;SDS011;2411;47.060;15.064;2024-02-21T08:15:30;6.87;;;2.77;;
4794;SDS011;2411;47.060;15.064;2024-02-21T08:17:57;4.47;;;2.50;;
4794;SDS011;2411;47.060;15.064;2024-02-21T08:20:28;4.83;;;2.63;;
4794;SDS011;2411;47.060;15.064;2024-02-21T08:22:55;4.73;;;2.90;;
4794;SDS011;2411;47.060;15.064;2024-02-21T08:25:22;4.63;;;3.23;;
4794;SDS011;2411;47.060;15.064;2024-02-21T08:27:49;7.17;;;3.27;;
4794;SDS011;2411;47.060;15.064;2024-02-21T08:30:17;8.43;;;2.87;;
4794;SDS011;2411;47.060;15.064;2024-02-21T08:32:45;5.03;;;2.70;;
4794;SDS011;2411;47.060;15.064;2024-02-21T08:35:12;2.47;;;2.27;;
4794;SDS011;2411;47.060;15.064;2024-02-21T08:37:39;4.97;;;3.03;;
4794;SDS011;2411;47.060;15.064;2024-02-21T08:40:06;4.13;;;3.27;;
4794;SDS011;2411;47.060;15.064;2024-02-21T08:42:35;5.87;;;3.10;;
4794;SDS011;2411;47.060;15.064;2024-02-21T08:45:05;4.20;;;2.63;;
4794;SDS011;2411;47.060;15.064;2024-02-21T08:47:33;4.87;;;2.57;;
4794;SDS011;2411;47.060;15.064;2024-02-21T08:50:00;4.57;;;1.77;;
4794;SDS011;2411;47.060;15.064;2024-02-21T08:52:40;5.57;;;2.97;;
4794;SDS011;2411;47.060;15.064;2024-02-21T08:55:08;3.20;;;2.90;;
4794;SDS011;2411;47.060;15.064;2024-02-21T08:57:35;11.13;;;2.23;;
4794;SDS011;2411;47.060;15.064;2024-02-21T09:00:04;3.27;;;2.20;;
4794;SDS011;2411;47.060;15.064;2024-02-21T09:02:37;6.27;;;3.13;;
4794;SDS011;2411;47.060;15.064;2024-02-21T09:05:11;7.13;;;3.50;;
4794;SDS011;2411;47.060;15.064;2024-02-21T09:07:38;3.30;;;2.10;;
4794;SDS011;2411;47.060;15.064;2024-02-21T09:10:06;2.83;;;2.50;;
4794;SDS011;2411;47.060;15.064;2024-02-21T09:12:33;3.83;;;2.80;;
4794;SDS011;2411;47.060;15.064;2024-02-21T09:15:00;3.60;;;1.80;;
4794;SDS011;2411;47.060;15.064;2024-02-21T09:17:28;3.43;;;1.50;;
4794;SDS011;2411;47.060;15.064;2024-02-21T09:19:56;7.63;;;2.43;;
4794;SDS011;2411;47.060;15.064;2024-02-21T09:22:29;2.40;;;1.60;;
4794;SDS011;2411;47.060;15.064;2024-02-21T09:24:58;9.23;;;1.83;;
4794;SDS011;2411;47.060;15.064;2024-02-21T09:27:25;1.97;;;1.50;;
4794;SDS011;2411;47.060;15.064;2024-02-21T09:29:52;3.60;;;1.70;;
4794;SDS011;2411;47.060;15.064;2024-02-21T09:32:19;5.30;;;2.03;;
4794;SDS011;2411;47.060;15.064;2024-02-21T09:34:46;10.63;;;3.53;;
4794;SDS011;2411;47.060;15.064;2024-02-21T09:37:14;8.50;;;2.20;;
4794;SDS011;2411;47.060;15.064;2024-02-21T09:39:41;6.90;;;1.83;;
4794;SDS011;2411;47.060;15.064;2024-02-21T09:42:08;6.80;;;2.67;;
4794;SDS011;2411;47.060;15.064;2024-02-21T09:44:38;5.73;;;2.37;;
4794;SDS011;2411;47.060;15.064;2024-02-21T09:47:25;1.80;;;1.70;;
4794;SDS011;2411;47.060;15.064;2024-02-21T09:50:09;4.30;;;2.00;;
4794;SDS011;2411;47.060;15.064;2024-02-21T09:52:37;4.70;;;2.47;;
4794;SDS011;2411;47.060;15.064;2024-02-21T09:55:05;8.33;;;1.87;;
4794;SDS011;2411;47.060;15.064;2024-02-21T09:57:37;4.57;;;1.90;;
4794;SDS011;2411;47.060;15.064;2024-02-21T10:00:05;2.90;;;1.20;;
4794;SDS011;2411;47.060;15.064;2024-02-21T10:02:35;2.03;;;1.43;;
4794;SDS011;2411;47.060;15.064;2024-02-21T10:05:03;2.87;;;1.20;;
4794;SDS011;2411;47.060;15.064;2024-02-21T10:07:31;3.00;;;1.30;;
4794;SDS011;2411;47.060;15.064;2024-02-21T10:10:02;5.33;;;1.73;;
4794;SDS011;2411;47.060;15.064;2024-02-21T10:12:30;2.80;;;1.60;;
4794;SDS011;2411;47.060;15.064;2024-02-21T10:15:03;1.83;;;1.03;;
4794;SDS011;2411;47.060;15.064;2024-02-21T10:17:32;4.33;;;1.37;;
4794;SDS011;2411;47.060;15.064;2024-02-21T10:20:08;1.50;;;1.03;;
4794;SDS011;2411;47.060;15.064;2024-02-21T10:22:37;6.67;;;1.10;;
4794;SDS011;2411;47.060;15.064;2024-02-21T10:25:06;4.10;;;1.40;;
4794;SDS011;2411;47.060;15.064;2024-02-21T10:27:37;2.97;;;1.23;;
4794;SDS011;2411;47.060;15.064;2024-02-21T10:30:12;3.13;;;1.27;;
4794;SDS011;2411;47.060;15.064;2024-02-21T10:32:50;2.80;;;1.40;;
4794;SDS011;2411;47.060;15.064;2024-02-21T10:35:27;2.20;;;1.17;;
4794;SDS011;2411;47.060;15.064;2024-02-21T10:37:56;2.50;;;1.13;;
4794;SDS011;2411;47.060;15.064;2024-02-21T10:40:27;3.93;;;1.50;;
4794;SDS011;2411;47.060;15.064;2024-02-21T10:42:59;2.57;;;1.43;;
4794;SDS011;2411;47.060;15.064;2024-02-21T10:45:29;4.33;;;1.30;;
4794;SDS011;2411;47.060;15.064;2024-02-21T10:48:08;1.27;;;1.17;;
4794;SDS011;2411;47.060;15.064;2024-02-21T10:50:53;1.67;;;1.37;;
4794;SDS011;2411;47.060;15.064;2024-02-21T10:56:15;2.83;;;1.43;;
4794;SDS011;2411;47.060;15.064;2024-02-21T10:58:58;3.63;;;1.20;;
4794;SDS011;2411;47.060;15.064;2024-02-21T11:01:27;4.70;;;1.00;;
4794;SDS011;2411;47.060;15.064;2024-02-21T11:04:00;1.30;;;0.80;;
4794;SDS011;2411;47.060;15.064;2024-02-21T11:06:29;1.83;;;1.00;;
4794;SDS011;2411;47.060;15.064;2024-02-21T11:11:29;0.90;;;0.70;;
4794;SDS011;2411;47.060;15.064;2024-02-21T11:14:08;5.80;;;1.10;;
4794;SDS011;2411;47.060;15.064;2024-02-21T11:16:39;0.93;;;0.60;;
4794;SDS011;2411;47.060;15.064;2024-02-21T11:19:28;2.37;;;0.63;;
4794;SDS011;2411;47.060;15.064;2024-02-21T11:21:56;4.27;;;1.20;;
4794;SDS011;2411;47.060;15.064;2024-02-21T11:24:30;0.70;;;0.70;;
4794;SDS011;2411;47.060;15.064;2024-02-21T11:32:15;1.90;;;1.10;;
4794;SDS011;2411;47.060;15.064;2024-02-21T11:35:01;3.20;;;1.43;;
4794;SDS011;2411;47.060;15.064;2024-02-21T11:37:33;6.30;;;1.03;;
4794;SDS011;2411;47.060;15.064;2024-02-21T11:40:06;2.83;;;0.83;;
4794;SDS011;2411;47.060;15.064;2024-02-21T11:42:38;2.83;;;1.00;;
4794;SDS011;2411;47.060;15.064;2024-02-21T11:45:06;0.93;;;0.73;;
4794;SDS011;2411;47.060;15.064;2024-02-21T11:47:33;2.60;;;1.00;;
4794;SDS011;2411;47.060;15.064;2024-02-21T11:50:00;5.60;;;0.97;;
4794;SDS011;2411;47.060;15.064;2024-02-21T11:52:28;2.90;;;1.00;;
4794;SDS011;2411;47.060;15.064;2024-02-21T11:54:55;1.43;;;0.63;;
4794;SDS011;2411;47.060;15.064;2024-02-21T11:57:32;1.67;;;0.80;;
4794;SDS011;2411;47.060;15.064;2024-02-21T11:59:59;2.10;;;1.30;;
4794;SDS011;2411;47.060;15.064;2024-02-21T12:02:36;1.83;;;1.07;;
4794;SDS011;2411;47.060;15.064;2024-02-21T12:05:03;1.90;;;1.00;;
4794;SDS011;2411;47.060;15.064;2024-02-21T12:07:32;2.90;;;1.27;;
4794;SDS011;2411;47.060;15.064;2024-02-21T12:09:59;1.60;;;0.83;;
4794;SDS011;2411;47.060;15.064;2024-02-21T12:12:27;1.40;;;0.97;;
4794;SDS011;2411;47.060;15.064;2024-02-21T12:14:55;1.70;;;0.80;;
4794;SDS011;2411;47.060;15.064;2024-02-21T12:17:24;1.23;;;1.03;;
4794;SDS011;2411;47.060;15.064;2024-02-21T12:19:51;4.00;;;1.00;;
4794;SDS011;2411;47.060;15.064;2024-02-21T12:22:19;3.03;;;1.67;;
4794;SDS011;2411;47.060;15.064;2024-02-21T12:24:46;0.90;;;0.90;;
4794;SDS011;2411;47.060;15.064;2024-02-21T12:27:15;6.27;;;0.97;;
4794;SDS011;2411;47.060;15.064;2024-02-21T12:29:42;1.30;;;0.90;;
4794;SDS011;2411;47.060;15.064;2024-02-21T12:32:09;2.20;;;1.10;;
4794;SDS011;2411;47.060;15.064;2024-02-21T12:34:36;3.37;;;0.70;;
4794;SDS011;2411;47.060;15.064;2024-02-21T12:37:19;1.30;;;0.70;;
4794;SDS011;2411;47.060;15.064;2024-02-21T12:39:47;3.17;;;0.90;;
4794;SDS011;2411;47.060;15.064;2024-02-21T12:42:14;8.13;;;1.00;;
4794;SDS011;2411;47.060;15.064;2024-02-21T12:44:42;1.87;;;0.80;;
4794;SDS011;2411;47.060;15.064;2024-02-21T12:47:09;1.77;;;1.10;;
4794;SDS011;2411;47.060;15.064;2024-02-21T12:49:37;1.60;;;1.10;;
4794;SDS011;2411;47.060;15.064;2024-02-21T12:52:10;3.07;;;1.00;;
4794;SDS011;2411;47.060;15.064;2024-02-21T12:54:37;1.23;;;0.93;;
4794;SDS011;2411;47.060;15.064;2024-02-21T12:57:05;1.23;;;0.70;;
4794;SDS011;2411;47.060;15.064;2024-02-21T12:59:32;1.73;;;1.13;;
4794;SDS011;2411;47.060;15.064;2024-02-21T13:01:59;1.03;;;0.97;;
4794;SDS011;2411;47.060;15.064;2024-02-21T13:04:27;1.60;;;1.00;;
4794;SDS011;2411;47.060;15.064;2024-02-21T13:06:54;0.80;;;0.80;;
4794;SDS011;2411;47.060;15.064;2024-02-21T13:09:24;1.13;;;0.90;;
4794;SDS011;2411;47.060;15.064;2024-02-21T13:11:52;1.97;;;0.80;;
4794;SDS011;2411;47.060;15.064;2024-02-21T13:14:19;4.60;;;1.00;;
4794;SDS011;2411;47.060;15.064;2024-02-21T13:16:46;1.43;;;1.00;;
4794;SDS011;2411;47.060;15.064;2024-02-21T13:19:14;4.17;;;0.97;;
4794;SDS011;2411;47.060;15.064;2024-02-21T13:21:44;4.10;;;0.77;;
4794;SDS011;2411;47.060;15.064;2024-02-21T13:24:11;1.60;;;0.80;;
4794;SDS011;2411;47.060;15.064;2024-02-21T13:26:39;5.63;;;1.50;;
4794;SDS011;2411;47.060;15.064;2024-02-21T13:29:06;2.30;;;1.97;;
4794;SDS011;2411;47.060;15.064;2024-02-21T13:31:33;1.57;;;1.20;;
4794;SDS011;2411;47.060;15.064;2024-02-21T13:34:00;1.37;;;1.27;;
4794;SDS011;2411;47.060;15.064;2024-02-21T13:36:27;0.90;;;0.90;;
4794;SDS011;2411;47.060;15.064;2024-02-21T13:38:54;2.80;;;1.43;;
4794;SDS011;2411;47.060;15.064;2024-02-21T13:41:21;1.03;;;1.00;;
4794;SDS011;2411;47.060;15.064;2024-02-21T13:43:50;1.13;;;0.80;;
4794;SDS011;2411;47.060;15.064;2024-02-21T13:46:17;2.40;;;1.23;;
4794;SDS011;2411;47.060;15.064;2024-02-21T13:48:44;1.53;;;1.07;;
4794;SDS011;2411;47.060;15.064;2024-02-21T13:51:11;1.73;;;1.13;;
4794;SDS011;2411;47.060;15.064;2024-02-21T13:53:38;1.60;;;0.80;;
4794;SDS011;2411;47.060;15.064;2024-02-21T13:56:06;2.50;;;1.03;;
4794;SDS011;2411;47.060;15.064;2024-02-21T13:58:35;2.83;;;0.90;;
4794;SDS011;2411;47.060;15.064;2024-02-21T14:01:04;1.40;;;1.10;;
4794;SDS011;2411;47.060;15.064;2024-02-21T14:03:31;1.33;;;1.23;;
4794;SDS011;2411;47.060;15.064;2024-02-21T14:05:59;1.17;;;1.07;;
4794;SDS011;2411;47.060;15.064;2024-02-21T14:08:27;1.20;;;1.20;;
4794;SDS011;2411;47.060;15.064;2024-02-21T14:10:54;1.43;;;0.90;;
4794;SDS011;2411;47.060;15.064;2024-02-21T14:13:22;1.43;;;1.33;;
4794;SDS011;2411;47.060;15.064;2024-02-21T14:15:49;1.50;;;0.97;;
4794;SDS011;2411;47.060;15.064;2024-02-21T14:18:16;2.43;;;1.10;;
4794;SDS011;2411;47.060;15.064;2024-02-21T14:20:44;1.20;;;1.10;;
4794;SDS011;2411;47.060;15.064;2024-02-21T14:23:13;1.30;;;1.20;;
4794;SDS011;2411;47.060;15.064;2024-02-21T14:25:40;5.53;;;1.17;;
4794;SDS011;2411;47.060;15.064;2024-02-21T14:28:08;1.03;;;1.03;;
4794;SDS011;2411;47.060;15.064;2024-02-21T14:30:35;1.07;;;1.07;;
4794;SDS011;2411;47.060;15.064;2024-02-21T14:33:03;1.30;;;1.10;;
4794;SDS011;2411;47.060;15.064;2024-02-21T14:35:30;1.60;;;1.10;;
4794;SDS011;2411;47.060;15.064;2024-02-21T14:37:57;1.20;;;1.10;;
4794;SDS011;2411;47.060;15.064;2024-02-21T14:40:27;1.20;;;1.10;;
4794;SDS011;2411;47.060;15.064;2024-02-21T14:42:56;1.20;;;1.03;;
4794;SDS011;2411;47.060;15.064;2024-02-21T14:45:23;0.97;;;0.93;;
4794;SDS011;2411;47.060;15.064;2024-02-21T14:47:50;1.47;;;1.37;;
4794;SDS011;2411;47.060;15.064;2024-02-21T14:50:17;1.63;;;1.37;;
4794;SDS011;2411;47.060;15.064;2024-02-21T14:52:45;3.03;;;1.43;;
4794;SDS011;2411;47.060;15.064;2024-02-21T14:55:13;1.23;;;1.13;;
4794;SDS011;2411;47.060;15.064;2024-02-21T14:57:41;1.70;;;1.00;;
4794;SDS011;2411;47.060;15.064;2024-02-21T15:00:09;2.33;;;1.47;;
4794;SDS011;2411;47.060;15.064;2024-02-21T15:02:38;3.30;;;1.20;;
4794;SDS011;2411;47.060;15.064;2024-02-21T15:05:05;6.00;;;1.30;;
4794;SDS011;2411;47.060;15.064;2024-02-21T15:07:33;1.97;;;1.30;;
4794;SDS011;2411;47.060;15.064;2024-02-21T15:10:01;2.13;;;1.20;;
4794;SDS011;2411;47.060;15.064;2024-02-21T15:12:29;1.90;;;1.00;;
4794;SDS011;2411;47.060;15.064;2024-02-21T15:14:58;1.90;;;1.03;;
4794;SDS011;2411;47.060;15.064;2024-02-21T15:17:26;1.73;;;1.20;;